Time;durP1;ratioP1;P1;durP2;ratioP2;P2;SDS_P1;SDS_P2;PMS_P1;PMS_P2;Temp;Humidity;BMP_temperature;BMP_pressure;BME280_temperature;BME280_humidity;BME280_pressure;Samples;Min_cycle;Max_cycle;Signal;HPM_P1;HPM_P2
2022/03/18 00:35:24;;;;;;;52.60;39.35;;;7.00;93.70;;;;;;5019905;28;20226;-89
2022/03/18 00:38:11;;;;;;;53.75;38.65;;;7.00;93.70;;;;;;5010358;28;20219;-89
2022/03/18 00:40:41;;;;;;;50.58;38.28;;;7.00;93.70;;;;;;5021749;28;20294;-89
2022/03/18 00:43:08;;;;;;;54.83;39.35;;;7.00;93.70;;;;;;5003424;28;20203;-89
2022/03/18 00:45:35;;;;;;;51.25;39.17;;;6.90;93.70;;;;;;4976488;28;20234;-90
2022/03/18 00:53:33;;;;;;;53.90;38.90;;;7.00;93.60;;;;;;5021016;28;20329;-90
2022/03/18 06:32:34;;;;;;;48.03;35.83;;;7.10;93.40;;;;;;5020184;28;20223;-87
2022/03/18 06:35:05;;;;;;;48.88;36.50;;;7.20;92.70;;;;;;5028626;28;20235;-89
2022/03/18 06:37:55;;;;;;;49.42;36.65;;;7.30;92.80;;;;;;5029757;28;20227;-91
2022/03/18 06:40:37;;;;;;;50.50;36.67;;;7.40;92.60;;;;;;5029984;28;20214;-87
2022/03/18 07:33:00;;;;;;;37.47;28.10;;;9.10;76.70;;;;;;4972844;28;20217;-89
2022/03/18 12:09:01;;;;;;;24.42;20.10;;;13.40;24.80;;;;;;4964746;28;20265;-93
2022/03/18 12:31:31;;;;;;;24.60;19.40;;;13.30;23.60;;;;;;5019220;28;20307;-89
2022/03/18 12:35:11;;;;;;;22.77;19.10;;;13.00;23.90;;;;;;5035288;28;20203;-89
2022/03/18 12:38:07;;;;;;;21.42;18.67;;;13.00;23.50;;;;;;5012564;28;20234;-89
2022/03/18 12:40:44;;;;;;;23.13;19.60;;;12.90;24.10;;;;;;5019436;28;20298;-90
2022/03/18 12:53:27;;;;;;;23.65;19.80;;;12.80;24.30;;;;;;4962220;28;20234;-89
2022/03/18 12:59:38;;;;;;;22.45;19.20;;;12.60;25.80;;;;;;5025395;28;20203;-91
2022/03/18 13:02:08;;;;;;;24.55;19.52;;;12.60;25.80;;;;;;5026671;28;20195;-91
2022/03/18 13:05:52;;;;;;;;;;;;;;;;;;;;;
2022/03/18 13:48:10;;;;;;;22.60;18.60;;;12.40;25.70;;;;;;4961366;28;20222;-89
2022/03/18 13:53:44;;;;;;;27.65;19.10;;;12.20;25.50;;;;;;5022100;28;20665;-90
2022/03/18 14:00:03;;;;;;;22.48;19.13;;;12.30;25.60;;;;;;5015380;28;20219;-90
2022/03/18 14:30:35;;;;;;;26.02;19.67;;;12.10;26.50;;;;;;5012324;28;20254;-89
2022/03/18 14:35:44;;;;;;;24.73;19.73;;;12.10;26.70;;;;;;5024223;28;20215;-89
2022/03/18 14:44:11;;;;;;;24.58;19.48;;;12.20;25.50;;;;;;5018081;28;20207;-92
2022/03/18 14:49:46;;;;;;;26.20;18.80;;;12.00;26.40;;;;;;5002657;28;20238;-91
2022/03/18 15:01:53;;;;;;;19.35;15.38;;;12.10;25.40;;;;;;5003350;28;20226;-92
2022/03/18 15:13:07;;;;;;;21.02;15.18;;;11.80;23.50;;;;;;4996403;28;20861;-92
2022/03/18 15:27:56;;;;;;;18.48;15.27;;;11.60;25.00;;;;;;5006985;28;20620;-89
2022/03/18 15:33:25;;;;;;;17.75;14.73;;;11.80;23.10;;;;;;5020545;28;20199;-92
2022/03/18 15:41:51;;;;;;;20.20;15.00;;;11.70;23.10;;;;;;5022732;28;20238;-89
2022/03/18 15:59:11;;;;;;;18.98;14.85;;;11.50;24.90;;;;;;5030274;28;20226;-90
2022/03/18 16:08:03;;;;;;;19.02;15.70;;;11.40;24.80;;;;;;4986704;28;20686;-90
2022/03/18 16:21:44;;;;;;;19.45;15.55;;;11.10;24.50;;;;;;5022899;28;20249;-90
2022/03/18 16:29:25;;;;;;;18.02;15.00;;;11.00;24.50;;;;;;5002252;28;20254;-89
2022/03/18 16:31:55;;;;;;;18.27;14.82;;;11.00;24.50;;;;;;5008841;28;20571;-88
2022/03/18 16:34:23;;;;;;;17.38;14.52;;;10.90;24.40;;;;;;5015288;28;20278;-90
2022/03/18 16:36:52;;;;;;;19.48;15.30;;;10.80;24.30;;;;;;5004975;28;20702;-89
2022/03/18 16:39:26;;;;;;;17.98;14.35;;;10.70;24.30;;;;;;5010179;28;20195;-91
2022/03/18 16:45:07;;;;;;;16.27;13.50;;;10.70;24.20;;;;;;5001420;28;20231;-90
2022/03/18 16:50:43;;;;;;;18.13;13.77;;;10.60;24.10;;;;;;5011177;28;20733;-88
2022/03/18 16:53:12;;;;;;;19.92;13.95;;;10.50;24.90;;;;;;5006588;28;20722;-88
2022/03/18 16:55:42;;;;;;;17.45;13.82;;;10.40;25.20;;;;;;4999623;28;20759;-89
2022/03/18 16:58:19;;;;;;;16.98;13.73;;;10.30;25.50;;;;;;5007002;28;20234;-87
2022/03/18 17:00:46;;;;;;;20.25;14.13;;;10.30;25.90;;;;;;5011238;28;20305;-87
2022/03/18 17:03:15;;;;;;;17.45;13.13;;;10.30;26.00;;;;;;5008206;28;20262;-88
2022/03/18 17:05:45;;;;;;;19.88;14.82;;;10.20;26.50;;;;;;5007365;28;20231;-87
2022/03/18 17:08:15;;;;;;;18.25;13.63;;;10.10;26.90;;;;;;5008596;28;20271;-89
2022/03/18 17:10:46;;;;;;;16.27;13.73;;;10.00;27.10;;;;;;5009504;28;20873;-88
2022/03/18 17:13:17;;;;;;;16.70;13.90;;;10.00;28.00;;;;;;5006199;28;20278;-88
2022/03/18 17:15:51;;;;;;;16.45;13.75;;;9.90;29.20;;;;;;5009951;28;20311;-88
2022/03/18 17:18:20;;;;;;;16.98;13.43;;;9.90;29.40;;;;;;5008098;28;20273;-88
2022/03/18 17:20:49;;;;;;;18.65;12.98;;;9.90;29.20;;;;;;5010190;28;20231;-88
2022/03/18 17:23:18;;;;;;;17.60;13.52;;;9.80;29.30;;;;;;5009523;28;20254;-87
2022/03/18 17:25:47;;;;;;;17.40;13.00;;;9.70;30.00;;;;;;5011608;28;20234;-88
2022/03/18 17:28:16;;;;;;;17.70;13.50;;;9.60;29.80;;;;;;5011962;28;20233;-88
2022/03/18 17:30:48;;;;;;;19.98;14.02;;;9.60;29.60;;;;;;5006303;28;20239;-88
2022/03/18 17:33:14;;;;;;;17.02;12.93;;;9.50;30.30;;;;;;5011885;28;20290;-88
2022/03/18 17:35:41;;;;;;;19.02;13.43;;;9.50;30.50;;;;;;5001436;28;20748;-88
2022/03/18 17:38:15;;;;;;;19.77;13.40;;;9.40;29.80;;;;;;5013482;28;20290;-89
2022/03/18 17:40:43;;;;;;;16.02;12.77;;;9.40;30.10;;;;;;5008413;28;20334;-89
2022/03/18 17:43:12;;;;;;;23.05;14.27;;;9.30;30.40;;;;;;5014452;28;20213;-89
2022/03/18 17:45:40;;;;;;;15.98;13.07;;;9.20;30.60;;;;;;5014371;28;20231;-89
2022/03/18 17:48:08;;;;;;;16.73;12.98;;;9.20;30.70;;;;;;5009801;28;20278;-88
2022/03/18 17:50:36;;;;;;;15.77;13.07;;;9.20;30.60;;;;;;5003578;28;20234;-89
2022/03/18 17:53:05;;;;;;;18.50;13.13;;;9.10;30.60;;;;;;4998464;28;20203;-88
2022/03/18 17:55:32;;;;;;;17.20;13.20;;;9.10;30.50;;;;;;5013826;28;20200;-88
2022/03/18 17:58:05;;;;;;;20.17;13.45;;;9.00;30.60;;;;;;5017247;28;20967;-89
2022/03/18 18:00:34;;;;;;;18.83;13.15;;;9.00;30.60;;;;;;5007089;28;20203;-88
2022/03/18 18:03:04;;;;;;;17.83;12.80;;;9.00;30.70;;;;;;5006031;28;20214;-88
2022/03/18 18:05:32;;;;;;;18.52;12.50;;;9.00;30.60;;;;;;4992753;28;20577;-88
2022/03/18 18:08:03;;;;;;;17.70;13.02;;;8.90;30.70;;;;;;4988542;28;20195;-88
2022/03/18 18:10:37;;;;;;;18.98;13.55;;;8.90;31.30;;;;;;5001531;28;20319;-87
2022/03/18 18:13:04;;;;;;;17.05;13.07;;;8.90;31.20;;;;;;5005088;28;20200;-88
2022/03/18 18:15:40;;;;;;;20.55;14.27;;;8.80;31.20;;;;;;5007509;28;20295;-88
2022/03/18 18:18:09;;;;;;;19.45;12.88;;;8.80;31.90;;;;;;5003662;28;20278;-88
2022/03/18 18:23:24;;;;;;;18.70;13.05;;;8.70;32.00;;;;;;5011458;28;20254;-87
2022/03/18 18:25:51;;;;;;;18.70;12.55;;;8.70;32.40;;;;;;5017260;28;20649;-88
2022/03/18 18:28:21;;;;;;;19.10;13.60;;;8.50;32.90;;;;;;5029259;28;20254;-88
2022/03/18 18:30:50;;;;;;;21.17;13.43;;;8.50;32.70;;;;;;5017443;28;20242;-87
2022/03/18 18:33:18;;;;;;;19.42;14.30;;;8.50;33.00;;;;;;5008771;28;20302;-87
2022/03/18 18:35:45;;;;;;;19.23;13.43;;;8.40;33.10;;;;;;5016537;28;20223;-87
2022/03/18 18:38:15;;;;;;;17.75;13.60;;;8.40;33.30;;;;;;5013380;28;20291;-88
2022/03/18 18:40:43;;;;;;;20.35;14.38;;;8.40;33.30;;;;;;5017469;28;20231;-87
2022/03/18 18:43:11;;;;;;;20.25;14.13;;;8.40;33.50;;;;;;5014725;28;20279;-88
2022/03/18 18:45:39;;;;;;;17.58;14.20;;;8.50;33.70;;;;;;5015960;28;20257;-88
2022/03/18 18:48:11;;;;;;;20.02;14.30;;;8.40;33.40;;;;;;5002548;28;20571;-88
2022/03/18 18:50:38;;;;;;;18.77;14.25;;;8.50;33.60;;;;;;5011637;28;20289;-88
2022/03/18 18:53:05;;;;;;;23.17;14.25;;;8.40;33.90;;;;;;5018186;28;20191;-87
2022/03/18 18:55:32;;;;;;;19.40;14.80;;;8.30;34.40;;;;;;5010539;28;21268;-88
2022/03/18 18:57:59;;;;;;;19.73;14.30;;;8.20;34.50;;;;;;5007477;28;20338;-88
2022/03/18 19:00:27;;;;;;;21.90;15.68;;;8.20;34.90;;;;;;5003201;28;20213;-88
2022/03/18 19:02:54;;;;;;;20.92;15.13;;;8.20;35.30;;;;;;4999749;28;21038;-88
2022/03/18 19:08:12;;;;;;;18.92;14.27;;;8.10;36.00;;;;;;5000536;28;20211;-88
2022/03/18 19:10:40;;;;;;;20.02;15.48;;;8.10;36.50;;;;;;4988539;28;20251;-89
2022/03/18 19:13:07;;;;;;;20.67;14.93;;;8.10;36.80;;;;;;5009774;28;20668;-91
2022/03/18 19:15:35;;;;;;;20.80;15.43;;;8.00;37.10;;;;;;5010677;28;20205;-91
2022/03/18 19:18:02;;;;;;;21.25;15.60;;;8.00;37.30;;;;;;5016771;28;20204;-89
2022/03/18 19:20:31;;;;;;;18.67;14.57;;;8.00;37.40;;;;;;5022605;28;20218;-89
2022/03/18 19:23:00;;;;;;;21.65;15.57;;;8.00;37.50;;;;;;5009769;28;20207;-89
2022/03/18 19:25:27;;;;;;;19.73;15.32;;;8.00;38.00;;;;;;5009830;28;20207;-89
2022/03/18 19:27:54;;;;;;;21.83;15.07;;;8.00;37.80;;;;;;5010872;28;20282;-91
2022/03/18 19:30:22;;;;;;;19.20;14.77;;;8.00;38.00;;;;;;5011716;28;20231;-90
2022/03/18 19:32:48;;;;;;;18.55;14.95;;;7.90;38.50;;;;;;5009124;28;20195;-89
2022/03/18 19:35:16;;;;;;;20.98;14.93;;;7.90;38.80;;;;;;5014873;28;20690;-88
2022/03/18 19:37:45;;;;;;;20.92;15.15;;;7.90;38.60;;;;;;5005532;28;20291;-87
2022/03/18 19:40:15;;;;;;;20.52;15.13;;;7.90;38.90;;;;;;5004776;28;20231;-88
2022/03/18 19:42:43;;;;;;;19.83;15.57;;;7.90;38.70;;;;;;5007683;28;20287;-87
2022/03/18 19:45:12;;;;;;;20.10;15.50;;;7.90;38.60;;;;;;5004232;28;20199;-87
2022/03/18 19:47:40;;;;;;;20.38;15.38;;;7.90;38.70;;;;;;5008543;28;20317;-86
2022/03/18 19:50:08;;;;;;;22.52;15.38;;;7.90;38.50;;;;;;5017860;28;20226;-87
2022/03/18 19:52:35;;;;;;;21.52;15.48;;;7.90;38.40;;;;;;5014347;28;20285;-87
2022/03/18 19:55:06;;;;;;;19.05;15.48;;;7.90;38.70;;;;;;5011116;28;20226;-87
2022/03/18 20:03:11;;;;;;;20.93;16.10;;;7.80;39.80;;;;;;5004777;28;21020;-87
2022/03/18 20:05:39;;;;;;;20.60;15.63;;;7.80;39.70;;;;;;5004634;28;20218;-86
2022/03/18 20:08:07;;;;;;;22.67;15.63;;;7.70;39.70;;;;;;5002306;28;20693;-88
2022/03/18 20:10:37;;;;;;;20.48;15.85;;;7.70;40.40;;;;;;5004443;28;20219;-87
2022/03/18 20:13:06;;;;;;;21.87;15.37;;;7.70;40.60;;;;;;5002695;28;20301;-88
2022/03/18 20:15:33;;;;;;;22.07;16.13;;;7.70;41.10;;;;;;5002642;28;20235;-88
2022/03/18 20:18:02;;;;;;;22.03;16.03;;;7.60;41.30;;;;;;5001697;28;20200;-87
2022/03/18 20:20:29;;;;;;;21.17;15.57;;;7.60;41.40;;;;;;4997170;28;20297;-87
2022/03/18 20:22:56;;;;;;;21.90;16.17;;;7.60;42.10;;;;;;5004296;28;20209;-88
2022/03/18 20:25:25;;;;;;;18.47;15.03;;;7.50;42.80;;;;;;5006379;28;20705;-88
2022/03/18 20:27:54;;;;;;;22.23;16.10;;;7.40;43.10;;;;;;4999804;28;20298;-88
2022/03/18 20:30:22;;;;;;;21.93;16.20;;;7.40;43.40;;;;;;5001486;28;20230;-88
2022/03/18 20:32:50;;;;;;;21.07;16.70;;;7.30;44.60;;;;;;5006187;28;20267;-88
2022/03/18 20:35:19;;;;;;;24.37;15.93;;;7.20;46.10;;;;;;5006910;28;20192;-88
2022/03/18 20:37:48;;;;;;;20.97;15.80;;;7.20;46.10;;;;;;5004975;28;20270;-88
2022/03/18 20:40:18;;;;;;;21.63;16.47;;;7.20;46.10;;;;;;5005623;28;20204;-88
2022/03/18 20:42:47;;;;;;;25.03;16.83;;;7.20;46.10;;;;;;5005322;28;20222;-87
2022/03/18 20:45:21;;;;;;;20.60;15.13;;;7.20;46.10;;;;;;5006662;28;20187;-88
2022/03/18 20:47:48;;;;;;;24.10;17.33;;;7.10;46.00;;;;;;5002936;28;20207;-88
2022/03/18 20:50:15;;;;;;;23.03;16.40;;;7.20;46.10;;;;;;5003564;28;20195;-88
2022/03/18 20:52:44;;;;;;;21.90;16.63;;;7.10;46.00;;;;;;5010040;28;20223;-88
2022/03/18 20:55:12;;;;;;;21.60;16.80;;;7.10;46.00;;;;;;5006517;28;20204;-88
2022/03/18 20:57:40;;;;;;;21.83;16.60;;;7.10;46.00;;;;;;5009524;28;20231;-88
2022/03/18 21:00:09;;;;;;;23.37;16.47;;;7.10;46.00;;;;;;5011842;28;20203;-88
2022/03/18 21:02:39;;;;;;;22.00;16.53;;;7.00;46.00;;;;;;5007826;28;20306;-88
2022/03/18 21:05:07;;;;;;;22.53;15.93;;;7.00;45.90;;;;;;5006120;28;20661;-88
2022/03/18 21:07:37;;;;;;;22.43;16.37;;;6.90;45.80;;;;;;5012257;28;20230;-88
2022/03/18 21:10:05;;;;;;;22.90;16.40;;;6.90;45.80;;;;;;5004833;28;20197;-88
2022/03/18 21:12:35;;;;;;;22.57;15.70;;;7.00;46.00;;;;;;5003528;28;20262;-88
2022/03/18 21:15:02;;;;;;;23.53;15.80;;;7.00;45.90;;;;;;5007731;28;20200;-88
2022/03/18 21:17:30;;;;;;;22.77;15.73;;;7.00;45.90;;;;;;4990433;28;20251;-87
2022/03/18 21:20:00;;;;;;;22.17;15.07;;;7.00;45.90;;;;;;5008638;28;20203;-88
2022/03/18 21:22:31;;;;;;;24.63;15.53;;;7.00;45.90;;;;;;5004776;28;20231;-87
2022/03/18 21:24:59;;;;;;;21.80;16.00;;;6.90;45.80;;;;;;5004774;28;20705;-88
2022/03/18 21:33:05;;;;;;;22.00;15.67;;;6.90;45.80;;;;;;5008209;28;20289;-88
2022/03/18 21:35:33;;;;;;;21.50;16.73;;;6.80;45.70;;;;;;5004945;28;20212;-88
2022/03/18 21:38:03;;;;;;;22.10;16.90;;;6.90;45.90;;;;;;5011168;28;20203;-87
2022/03/18 21:40:31;;;;;;;20.87;16.00;;;6.70;46.90;;;;;;5006099;28;20262;-87
2022/03/18 21:42:58;;;;;;;21.13;15.73;;;6.70;47.60;;;;;;5008668;28;20207;-87
2022/03/18 21:45:26;;;;;;;22.53;15.83;;;6.60;48.30;;;;;;5001417;28;20212;-88
2022/03/18 21:47:54;;;;;;;20.13;15.23;;;6.60;48.40;;;;;;5000431;28;20779;-87
2022/03/18 21:50:22;;;;;;;22.03;16.63;;;6.50;49.10;;;;;;5010322;28;20298;-88
2022/03/18 21:52:50;;;;;;;24.50;16.47;;;6.60;49.20;;;;;;5010781;28;20583;-87
2022/03/18 21:55:17;;;;;;;21.57;15.90;;;6.50;49.40;;;;;;5017602;28;20206;-84
2022/03/18 21:57:49;;;;;;;20.57;15.90;;;6.50;49.80;;;;;;5014953;28;20231;-86
2022/03/18 22:00:16;;;;;;;21.37;15.40;;;6.50;49.90;;;;;;5017508;28;20224;-87
2022/03/18 22:02:44;;;;;;;22.10;15.73;;;6.40;50.10;;;;;;5012552;28;20238;-87
2022/03/18 22:05:13;;;;;;;22.37;15.37;;;6.40;50.30;;;;;;5013643;28;20208;-85
2022/03/18 22:07:42;;;;;;;19.40;15.13;;;6.40;50.30;;;;;;5019113;28;20314;-87
2022/03/18 22:10:11;;;;;;;21.37;16.27;;;6.40;50.70;;;;;;5015096;28;20210;-87
2022/03/18 22:12:40;;;;;;;22.53;16.87;;;6.30;51.00;;;;;;5020113;28;20326;-87
2022/03/18 22:15:09;;;;;;;25.90;16.83;;;6.30;51.40;;;;;;5010958;28;20220;-85
2022/03/18 22:17:37;;;;;;;22.27;16.37;;;6.20;52.10;;;;;;5011441;28;20227;-85
2022/03/18 22:20:05;;;;;;;22.70;16.90;;;6.20;52.60;;;;;;5016700;28;20230;-85
2022/03/18 22:22:36;;;;;;;23.10;16.50;;;6.20;53.20;;;;;;5009326;28;20243;-85
2022/03/18 22:25:03;;;;;;;21.70;16.40;;;6.20;53.80;;;;;;5007229;28;20203;-85
2022/03/18 22:27:32;;;;;;;22.37;16.43;;;6.00;54.60;;;;;;5016624;28;20322;-85
2022/03/18 22:29:59;;;;;;;21.50;16.23;;;6.00;55.60;;;;;;5012889;28;20207;-85
2022/03/18 22:32:26;;;;;;;27.47;17.20;;;5.90;56.30;;;;;;5016924;28;20608;-85
2022/03/18 22:34:54;;;;;;;22.27;16.77;;;6.00;55.90;;;;;;5014854;28;20205;-85
2022/03/18 22:37:27;;;;;;;21.80;17.03;;;6.00;55.80;;;;;;5011551;28;20241;-85
2022/03/18 22:39:54;;;;;;;23.43;17.33;;;5.90;56.10;;;;;;5009355;28;20204;-85
2022/03/18 22:42:21;;;;;;;24.03;17.57;;;5.90;56.30;;;;;;5019397;28;20607;-85
2022/03/18 22:44:50;;;;;;;25.57;17.10;;;5.80;56.60;;;;;;5014632;28;20311;-85
2022/03/18 22:47:18;;;;;;;23.30;17.40;;;5.80;56.80;;;;;;5013931;28;20219;-85
2022/03/18 22:49:49;;;;;;;24.93;17.90;;;5.80;56.50;;;;;;5009089;28;20203;-85
2022/03/18 22:52:17;;;;;;;23.73;17.73;;;5.70;56.60;;;;;;5014153;28;20708;-85
2022/03/18 22:54:44;;;;;;;21.67;16.97;;;5.80;56.60;;;;;;5015817;28;20209;-83
2022/03/18 22:57:15;;;;;;;23.47;17.53;;;5.80;56.60;;;;;;5005101;28;20231;-85
2022/03/18 22:59:42;;;;;;;24.73;17.53;;;5.80;56.80;;;;;;5011609;28;20314;-86
2022/03/18 23:02:11;;;;;;;23.10;17.60;;;5.70;56.70;;;;;;5011053;28;20243;-85
2022/03/18 23:04:38;;;;;;;26.53;17.50;;;5.70;56.90;;;;;;5011672;28;20200;-85
2022/03/18 23:07:06;;;;;;;22.97;16.97;;;5.70;57.20;;;;;;5008129;28;20230;-85
2022/03/18 23:09:33;;;;;;;23.37;17.50;;;5.60;57.60;;;;;;5013477;28;20207;-83
2022/03/18 23:12:10;;;;;;;23.30;17.37;;;5.60;57.60;;;;;;5012243;28;20223;-84
2022/03/18 23:14:38;;;;;;;24.23;17.57;;;5.60;58.10;;;;;;5014230;28;20285;-83
2022/03/18 23:17:05;;;;;;;25.50;17.10;;;5.50;58.20;;;;;;5008506;28;20231;-84
2022/03/18 23:19:40;;;;;;;24.80;17.97;;;5.50;58.30;;;;;;5014289;28;20725;-84
2022/03/18 23:22:09;;;;;;;23.50;17.17;;;5.40;59.00;;;;;;5012297;28;20222;-84
2022/03/18 23:24:36;;;;;;;22.03;17.47;;;5.40;59.20;;;;;;5017019;28;20267;-84
2022/03/18 23:27:05;;;;;;;23.97;17.70;;;5.50;60.40;;;;;;5034927;28;20294;-86
2022/03/18 23:29:32;;;;;;;25.03;17.07;;;5.50;59.20;;;;;;5023041;28;20290;-83
2022/03/18 23:32:00;;;;;;;26.20;17.40;;;5.50;58.80;;;;;;5005364;28;20222;-83
2022/03/18 23:34:27;;;;;;;22.33;17.23;;;5.60;58.90;;;;;;5016187;28;20650;-83
2022/03/18 23:36:56;;;;;;;23.07;18.03;;;5.50;58.40;;;;;;5007657;28;20769;-84
2022/03/18 23:39:23;;;;;;;25.00;18.13;;;5.50;59.20;;;;;;5012709;28;20214;-84
2022/03/18 23:41:50;;;;;;;23.80;18.43;;;5.40;59.00;;;;;;5013971;28;20219;-83
2022/03/18 23:44:17;;;;;;;25.43;18.07;;;5.50;59.00;;;;;;5009589;28;20211;-84
2022/03/18 23:46:44;;;;;;;25.80;18.03;;;5.40;59.50;;;;;;5005924;28;20230;-84
2022/03/18 23:49:15;;;;;;;23.50;18.37;;;5.40;59.60;;;;;;4997079;28;20564;-83
2022/03/18 23:51:42;;;;;;;24.33;17.90;;;5.40;59.60;;;;;;5014199;28;20226;-84
2022/03/18 23:54:11;;;;;;;28.77;19.00;;;5.40;60.00;;;;;;5012423;28;20203;-83
2022/03/18 23:56:42;;;;;;;25.60;18.23;;;5.40;59.90;;;;;;5012394;28;20846;-90
2022/03/18 23:59:09;;;;;;;25.27;17.90;;;5.30;60.30;;;;;;5010371;28;20202;-84
